createdAt,value
2024-05-09T00:03:41.754Z,97928.38
2024-05-09T00:08:44.249Z,97926.66
2024-05-09T00:13:47.307Z,97936.28
2024-05-09T00:18:49.334Z,97924.94
2024-05-09T00:23:51.305Z,97929.81
2024-05-09T00:28:53.326Z,97931.97
2024-05-09T00:33:55.390Z,97924.19
2024-05-09T00:38:57.480Z,97919.53
2024-05-09T00:43:59.889Z,97925.78
2024-05-09T00:49:02.081Z,97925.38
2024-05-09T00:54:05.484Z,97922.84
2024-05-09T00:59:08.602Z,97914.34
2024-05-09T01:04:11.453Z,97913.50
2024-05-09T01:09:13.567Z,97905.81
2024-05-09T01:14:15.478Z,97899.81
2024-05-09T01:19:26.963Z,97903.72
2024-05-09T01:24:29.583Z,97908.75
2024-05-09T01:29:31.827Z,97906.00
2024-05-09T01:34:33.756Z,97913.41
2024-05-09T01:39:36.329Z,97909.53
2024-05-09T01:44:38.404Z,97909.75
2024-05-09T01:49:40.860Z,97911.66
2024-05-09T01:54:43.063Z,97915.19
2024-05-09T01:59:45.142Z,97914.66
2024-05-09T02:04:47.932Z,97909.47
2024-05-09T02:09:53.436Z,97910.59
2024-05-09T02:14:55.697Z,97915.50
2024-05-09T02:19:58.084Z,97916.34
2024-05-09T02:25:00.791Z,97913.28
2024-05-09T02:30:04.720Z,97909.69
2024-05-09T02:35:08.115Z,97914.53
2024-05-09T02:40:14.613Z,97913.38
2024-05-09T02:45:20.041Z,97924.94
2024-05-09T02:50:29.895Z,97921.66
2024-05-09T02:55:40.043Z,97920.03
2024-05-09T03:00:43.129Z,97917.25
2024-05-09T03:05:45.852Z,97914.41
2024-05-09T03:10:48.377Z,97906.66
2024-05-09T03:15:50.517Z,97912.97
2024-05-09T03:20:53.042Z,97904.16
2024-05-09T03:25:55.076Z,97908.00
2024-05-09T03:30:57.018Z,97908.84
2024-05-09T03:35:59.151Z,97916.50
2024-05-09T03:41:01.294Z,97914.22
2024-05-09T03:46:03.604Z,97909.66
2024-05-09T03:51:06.854Z,97917.09
2024-05-09T03:56:08.937Z,97927.03
2024-05-09T04:01:10.987Z,97923.78
2024-05-09T04:06:21.366Z,97928.19
2024-05-09T04:11:23.369Z,97931.16
2024-05-09T04:16:25.702Z,97930.28
2024-05-09T04:21:27.640Z,97936.25
2024-05-09T04:26:29.610Z,97941.16
2024-05-09T04:31:36.112Z,97945.56
2024-05-09T04:36:39.665Z,97951.06
2024-05-09T04:41:43.950Z,97953.81
2024-05-09T04:46:47.638Z,97957.69
2024-05-09T04:51:49.613Z,97958.53
2024-05-09T04:56:51.685Z,97950.94
2024-05-09T05:01:53.818Z,97954.56
2024-05-09T05:06:57.747Z,97957.91
2024-05-09T05:12:02.908Z,97956.97
2024-05-09T05:17:05.239Z,97952.66
2024-05-09T05:22:07.320Z,97953.88
2024-05-09T05:27:09.847Z,97968.25
2024-05-09T05:32:12.070Z,97967.78
2024-05-09T05:37:14.241Z,97969.41
2024-05-09T05:42:36.363Z,97960.66
2024-05-09T05:47:38.934Z,97959.59
2024-05-09T05:52:40.959Z,97963.19
2024-05-09T05:57:43.750Z,97966.00
2024-05-09T06:02:45.874Z,97966.34
2024-05-09T06:07:47.998Z,97963.06
2024-05-09T06:12:50.409Z,97969.69
2024-05-09T06:17:52.665Z,97966.16
2024-05-09T06:22:54.691Z,97965.88
2024-05-09T06:27:57.002Z,97966.47
2024-05-09T06:32:59.135Z,97974.19
2024-05-09T06:38:01.570Z,97964.88
2024-05-09T06:43:03.976Z,97970.94
2024-05-09T06:48:07.197Z,97961.38
2024-05-09T06:53:09.894Z,97968.88
2024-05-09T06:58:12.167Z,97962.25
2024-05-09T07:03:18.562Z,97962.81
2024-05-09T07:08:21.566Z,97963.09
2024-05-09T07:13:24.051Z,97961.19
2024-05-09T07:18:26.724Z,97969.19
2024-05-09T07:23:28.819Z,97963.41
2024-05-09T07:28:30.946Z,97969.47
2024-05-09T07:33:33.148Z,97966.41
2024-05-09T07:38:35.568Z,97958.13
2024-05-09T07:43:37.912Z,97950.13
2024-05-09T07:53:50.616Z,97941.00
2024-05-09T07:58:55.768Z,97944.56
2024-05-09T08:03:57.891Z,97950.03
2024-05-09T08:09:07.689Z,97942.59
2024-05-09T08:14:12.908Z,97945.53
2024-05-09T08:19:15.198Z,97944.34
2024-05-09T08:24:17.495Z,97939.53
2024-05-09T08:29:19.819Z,97948.22
2024-05-09T08:34:22.019Z,97943.44
2024-05-09T08:39:24.621Z,97938.88
2024-05-09T08:44:26.748Z,97949.97
2024-05-09T08:49:30.274Z,97941.50
2024-05-09T08:54:32.907Z,97938.13
2024-05-09T08:59:40.719Z,97936.03
2024-05-09T09:04:51.093Z,97931.09
2024-05-09T09:09:54.827Z,97926.09
2024-05-09T09:15:00.334Z,97923.88
2024-05-09T09:20:11.304Z,97923.38
2024-05-09T09:25:16.746Z,97927.09
2024-05-09T09:30:33.998Z,97938.66
2024-05-09T09:35:54.263Z,97943.34
2024-05-09T09:40:56.757Z,97940.72
2024-05-09T09:46:01.092Z,97938.78
2024-05-09T09:51:03.691Z,97929.44
2024-05-09T09:56:08.819Z,97915.41
2024-05-09T10:01:11.418Z,97926.69
2024-05-09T10:06:14.310Z,97943.63
2024-05-09T10:11:22.272Z,97930.09
2024-05-09T10:16:24.875Z,97923.72
2024-05-09T10:21:27.735Z,97923.56
2024-05-09T10:26:37.479Z,97924.69
2024-05-09T10:31:44.200Z,97917.19
2024-05-09T10:36:46.498Z,97914.31
2024-05-09T10:41:49.718Z,97913.25
2024-05-09T10:46:54.747Z,97910.84
2024-05-09T10:51:57.321Z,97915.31
2024-05-09T10:56:59.265Z,97897.47
2024-05-09T11:02:04.474Z,97886.59
2024-05-09T11:07:12.796Z,97886.44
2024-05-09T11:12:15.794Z,97880.19
2024-05-09T11:17:26.758Z,97872.75
2024-05-09T11:22:35.532Z,97876.22
2024-05-09T11:27:37.618Z,97874.88
2024-05-09T11:32:40.323Z,97877.94
2024-05-09T11:37:43.043Z,97888.00
2024-05-09T11:42:49.957Z,97871.69
2024-05-09T11:47:54.309Z,97866.25
2024-05-09T11:52:56.636Z,97861.38
2024-05-09T11:57:58.798Z,97864.50
2024-05-09T12:03:01.104Z,97865.75
2024-05-09T12:08:03.596Z,97858.25
2024-05-09T12:13:06.951Z,97846.13
2024-05-09T12:18:09.841Z,97839.59
2024-05-09T12:23:12.103Z,97842.63
2024-05-09T12:28:16.041Z,97840.56
2024-05-09T12:33:20.713Z,97838.69
2024-05-09T12:38:23.040Z,97840.16
2024-05-09T12:43:25.442Z,97827.94
2024-05-09T12:48:28.053Z,97829.25
2024-05-09T12:53:30.485Z,97820.88
2024-05-09T12:58:33.336Z,97821.00
2024-05-09T13:03:35.437Z,97813.38
2024-05-09T13:08:37.667Z,97810.97
2024-05-09T13:13:39.780Z,97811.44
2024-05-09T13:18:42.220Z,97799.41
2024-05-09T13:23:45.076Z,97792.81
2024-05-09T13:28:47.036Z,97776.06
2024-05-09T13:33:49.099Z,97783.50
2024-05-09T13:38:51.108Z,97773.00
2024-05-09T13:43:53.720Z,97771.63
2024-05-09T13:48:55.724Z,97775.63
2024-05-09T13:53:59.345Z,97767.28
2024-05-09T13:59:02.227Z,97769.59
2024-05-09T14:04:04.521Z,97774.69
2024-05-09T14:09:09.720Z,97766.94
2024-05-09T14:14:11.775Z,97766.25
2024-05-09T14:19:15.095Z,97764.84
2024-05-09T14:24:17.308Z,97760.41
2024-05-09T14:29:19.394Z,97754.97
2024-05-09T14:34:21.457Z,97742.44
2024-05-09T14:39:23.503Z,97735.69
2024-05-09T14:44:25.436Z,97732.97
2024-05-09T14:49:27.518Z,97735.41
2024-05-09T14:54:29.737Z,97735.25
2024-05-09T14:59:31.799Z,97725.28
2024-05-09T15:04:33.839Z,97726.81
2024-05-09T15:09:36.391Z,97730.75
2024-05-09T15:14:38.779Z,97710.88
2024-05-09T15:19:41.590Z,97707.94
2024-05-09T15:24:45.155Z,97703.84
2024-05-09T15:29:47.144Z,97696.22
2024-05-09T15:34:49.438Z,97693.00
2024-05-09T15:39:51.692Z,97695.94
2024-05-09T15:44:54.802Z,97707.34
2024-05-09T15:49:56.978Z,97698.47
2024-05-09T15:54:59.199Z,97703.50
2024-05-09T16:00:01.173Z,97701.69
2024-05-09T16:05:03.554Z,97704.00
2024-05-09T16:10:07.137Z,97696.59
2024-05-09T16:15:09.475Z,97692.66
2024-05-09T16:20:15.167Z,97692.09
2024-05-09T16:25:20.915Z,97682.63
2024-05-09T16:30:31.423Z,97672.19
2024-05-09T16:35:40.164Z,97671.78
2024-05-09T16:40:43.227Z,97672.00
2024-05-09T16:45:45.334Z,97673.97
2024-05-09T16:50:47.924Z,97676.59
2024-05-09T16:55:49.980Z,97666.53
2024-05-09T17:00:52.534Z,97669.31
2024-05-09T17:05:54.768Z,97672.09
2024-05-09T17:10:57.213Z,97666.13
2024-05-09T17:15:59.584Z,97662.13
2024-05-09T17:21:01.645Z,97659.28
2024-05-09T17:26:04.182Z,97662.69
2024-05-09T17:31:07.363Z,97660.56
2024-05-09T17:36:09.503Z,97657.81
2024-05-09T17:41:11.850Z,97665.56
2024-05-09T17:46:13.814Z,97668.66
2024-05-09T17:51:16.078Z,97670.53
2024-05-09T17:56:18.689Z,97675.22
2024-05-09T18:01:20.867Z,97676.41
2024-05-09T18:06:22.873Z,97679.44
2024-05-09T18:11:25.655Z,97673.13
2024-05-09T18:16:30.935Z,97668.84
2024-05-09T18:21:33.037Z,97674.50
2024-05-09T18:26:35.103Z,97676.28
2024-05-09T18:31:37.232Z,97686.50
2024-05-09T18:36:42.390Z,97685.66
2024-05-09T18:41:45.366Z,97691.47
2024-05-09T18:46:47.216Z,97693.91
2024-05-09T18:51:49.225Z,97704.03
2024-05-09T18:56:51.303Z,97703.03
2024-05-09T19:01:53.358Z,97700.41
2024-05-09T19:06:56.036Z,97709.31
2024-05-09T19:12:03.218Z,97714.06
2024-05-09T19:17:06.104Z,97717.69
2024-05-09T19:22:08.715Z,97724.84
2024-05-09T19:27:11.307Z,97733.13
2024-05-09T19:32:13.708Z,97737.81
2024-05-09T19:37:15.982Z,97737.53
2024-05-09T19:42:18.301Z,97741.59
2024-05-09T19:47:20.957Z,97744.06
2024-05-09T19:52:27.418Z,97745.66
2024-05-09T19:57:30.424Z,97740.13
2024-05-09T20:02:33.111Z,97746.66
2024-05-09T20:07:37.623Z,97749.88
2024-05-09T20:12:40.174Z,97747.72
2024-05-09T20:17:43.836Z,97747.72
2024-05-09T20:22:47.370Z,97745.47
2024-05-09T20:27:49.536Z,97747.06
2024-05-09T20:32:53.930Z,97752.56
2024-05-09T20:37:56.566Z,97751.16
2024-05-09T20:42:59.548Z,97755.16
2024-05-09T20:48:03.435Z,97753.75
2024-05-09T20:53:05.729Z,97748.47
2024-05-09T20:58:08.576Z,97751.44
2024-05-09T21:03:13.444Z,97751.44
2024-05-09T21:08:16.480Z,97756.34
2024-05-09T21:13:18.714Z,97749.53
2024-05-09T21:18:21.381Z,97744.97
2024-05-09T21:23:23.348Z,97754.66
2024-05-09T21:28:25.467Z,97752.88
2024-05-09T21:33:29.440Z,97755.03
2024-05-09T21:38:32.665Z,97748.34
2024-05-09T21:43:34.671Z,97753.16
2024-05-09T21:48:37.265Z,97748.13
2024-05-09T21:53:40.197Z,97744.91
2024-05-09T21:58:42.449Z,97746.56
2024-05-09T22:03:44.660Z,97729.00
2024-05-09T22:08:47.157Z,97737.16
2024-05-09T22:13:49.283Z,97737.22
2024-05-09T22:18:51.373Z,97731.50
2024-05-09T22:23:53.363Z,97726.50
2024-05-09T22:28:55.221Z,97735.59
2024-05-09T22:33:57.493Z,97723.00
2024-05-09T22:38:59.839Z,97725.63
2024-05-09T22:44:02.499Z,97728.34
2024-05-09T22:49:04.746Z,97732.09
2024-05-09T22:54:07.711Z,97728.25
2024-05-09T22:59:09.852Z,97724.44
2024-05-09T23:04:11.946Z,97729.63
2024-05-09T23:09:14.290Z,97732.72
2024-05-09T23:14:16.708Z,97726.38
2024-05-09T23:19:19.091Z,97729.38
2024-05-09T23:24:21.223Z,97731.56
2024-05-09T23:29:23.122Z,97727.41
2024-05-09T23:34:25.216Z,97720.38
2024-05-09T23:39:27.339Z,97722.66
2024-05-09T23:44:29.249Z,97718.06
2024-05-09T23:49:31.341Z,97712.41
2024-05-09T23:54:33.467Z,97712.25
2024-05-09T23:59:35.646Z,97704.03
